Time;durP1;ratioP1;P1;durP2;ratioP2;P2;SDS_P1;SDS_P2;PMS_P1;PMS_P2;Temp;Humidity;BMP_temperature;BMP_pressure;BME280_temperature;BME280_humidity;BME280_pressure;Samples;Min_cycle;Max_cycle;Signal;HPM_P1;HPM_P2
2022/04/28 00:01:40;;;;;;;15.45;1.65;;;;;;;20.62;46.67;100375.84;7309279;19;154628;-40
2022/04/28 00:04:05;;;;;;;22.27;2.15;;;;;;;20.69;46.73;100375.25;7310669;19;147211;-43
2022/04/28 00:06:30;;;;;;;19.13;1.92;;;;;;;20.67;46.47;100378.94;7309272;19;158642;-40
2022/04/28 00:08:55;;;;;;;31.20;3.23;;;;;;;20.63;46.71;100377.50;7309233;19;159185;-42
2022/04/28 00:11:20;;;;;;;19.53;2.00;;;;;;;20.72;46.77;100374.22;7308909;19;153397;-35
2022/04/28 00:13:46;;;;;;;21.20;2.47;;;;;;;20.68;46.65;100375.38;7309482;19;153534;-42
2022/04/28 00:16:11;;;;;;;21.70;2.00;;;;;;;20.71;46.21;100367.28;7307098;19;158174;-42
2022/04/28 00:18:36;;;;;;;18.30;1.67;;;;;;;20.75;46.99;100366.13;7310505;19;158367;-42
2022/04/28 00:21:02;;;;;;;35.33;3.50;;;;;;;20.71;46.13;100346.38;7309954;19;130016;-39
2022/04/28 00:23:27;;;;;;;35.92;3.78;;;;;;;20.94;46.84;100361.16;7310115;19;135353;-39
2022/04/28 00:25:52;;;;;;;22.77;2.25;;;;;;;20.95;48.19;100365.47;7309676;19;157030;-42
2022/04/28 00:28:20;;;;;;;24.70;2.33;;;;;;;20.97;49.30;100360.13;7310991;19;158654;-35
2022/04/28 00:30:45;;;;;;;34.53;3.10;;;;;;;20.93;48.99;100354.28;7309046;19;129246;-41
2022/04/28 00:33:11;;;;;;;19.15;1.90;;;;;;;21.03;49.24;100364.88;7310041;19;129207;-41
2022/04/28 00:35:36;;;;;;;21.30;2.15;;;;;;;21.07;49.65;100371.56;7306395;19;158412;-41
2022/04/28 00:38:01;;;;;;;18.33;1.98;;;;;;;21.07;50.03;100366.34;7309526;19;158674;-43
2022/04/28 00:40:26;;;;;;;18.48;1.90;;;;;;;21.06;49.21;100378.56;7310598;19;155139;-40
2022/04/28 00:43:18;;;;;;;23.55;2.55;;;;;;;21.08;49.96;100376.69;7307924;19;154165;-41
2022/04/28 00:45:37;;;;;;;25.55;2.65;;;;;;;21.09;49.39;100369.66;7309470;19;130707;-43
2022/04/28 00:50:47;;;;;;;22.95;2.20;;;;;;;21.12;49.98;100380.69;7310303;19;128931;-39
2022/04/28 00:53:13;;;;;;;26.63;2.58;;;;;;;20.91;47.64;100358.78;7307932;19;129819;-41
2022/04/28 00:55:41;;;;;;;12.25;1.38;;;;;;;20.65;47.67;100367.75;7308535;19;130022;-41
2022/04/28 00:58:06;;;;;;;19.80;1.85;;;;;;;20.61;47.64;100368.94;7309971;19;130916;-39
2022/04/28 01:00:31;;;;;;;18.52;1.90;;;;;;;20.64;47.03;100369.53;7309055;19;131005;-43
2022/04/28 01:02:57;;;;;;;28.40;2.92;;;;;;;20.68;47.19;100362.31;7307953;19;129939;-41
2022/04/28 01:05:22;;;;;;;40.90;4.25;;;;;;;20.68;46.76;100362.31;7308551;19;130274;-40
2022/04/28 01:07:48;;;;;;;35.00;3.33;;;;;;;20.76;46.90;100359.94;7307589;19;159127;-42
2022/04/28 01:10:13;;;;;;;20.15;2.05;;;;;;;20.69;46.41;100367.41;7309077;19;130150;-41
2022/04/28 01:12:38;;;;;;;24.25;2.42;;;;;;;20.68;46.52;100367.53;7306282;19;154446;-42
2022/04/28 01:15:05;;;;;;;31.42;3.25;;;;;;;20.74;46.74;100370.50;7307518;19;131883;-42
2022/04/28 01:17:30;;;;;;;25.65;2.50;;;;;;;20.81;46.20;100370.88;7310387;19;130880;-41
2022/04/28 01:19:55;;;;;;;25.25;2.65;;;;;;;20.81;45.82;100370.88;7317336;19;128841;-40
2022/04/28 01:22:21;;;;;;;32.13;3.23;;;;;;;20.98;46.92;100373.09;7314229;19;154225;-40
2022/04/28 01:24:46;;;;;;;25.00;2.53;;;;;;;20.96;48.16;100374.94;7314677;19;158374;-41
2022/04/28 01:27:12;;;;;;;17.47;2.00;;;;;;;20.99;48.95;100382.59;7314288;19;159119;-39
2022/04/28 01:29:38;;;;;;;35.22;3.45;;;;;;;21.02;49.27;100377.16;7315463;19;129319;-41
2022/04/28 01:32:03;;;;;;;23.10;2.23;;;;;;;21.04;49.78;100377.84;7313525;19;154679;-41
2022/04/28 01:34:29;;;;;;;29.20;3.00;;;;;;;21.04;49.28;100380.47;7313424;19;129164;-42
2022/04/28 01:36:54;;;;;;;30.33;3.28;;;;;;;21.09;49.37;100382.75;7312704;19;158182;-39
2022/04/28 01:39:20;;;;;;;36.70;3.72;;;;;;;21.08;49.55;100384.50;7314603;19;130858;-38
2022/04/28 01:41:47;;;;;;;29.98;2.92;;;;;;;21.11;50.24;100384.28;7314738;19;129614;-43
2022/04/28 01:44:12;;;;;;;31.48;2.97;;;;;;;21.10;50.28;100382.63;7314614;19;129892;-38
2022/04/28 01:46:38;;;;;;;14.35;1.52;;;;;;;21.13;49.90;100379.78;7313882;19;160293;-40
2022/04/28 01:49:03;;;;;;;29.50;2.78;;;;;;;21.12;50.07;100385.94;7312958;19;154693;-39
2022/04/28 01:56:56;;;;;;;31.25;3.28;;;;;;;20.69;47.07;100387.50;7315085;19;129500;-41
2022/04/28 01:59:22;;;;;;;19.80;2.03;;;;;;;20.70;46.80;100389.16;7314926;19;130205;-42
2022/04/28 02:01:47;;;;;;;32.50;2.95;;;;;;;20.69;46.88;100387.50;7315106;19;129885;-42
2022/04/28 02:04:12;;;;;;;31.00;3.28;;;;;;;20.71;46.28;100390.81;7314475;19;158704;-40
2022/04/28 02:06:37;;;;;;;6.00;0.67;;;;;;;20.73;47.10;100391.53;7313987;19;158408;-39
2022/04/28 02:09:03;;;;;;;19.67;2.00;;;;;;;20.71;46.73;100396.03;7314422;19;155111;-42
2022/04/28 02:11:29;;;;;;;34.35;3.47;;;;;;;20.76;46.84;100388.69;7315186;19;129282;-42
2022/04/28 02:13:54;;;;;;;13.95;1.80;;;;;;;20.79;46.38;100391.09;7314543;19;129205;-36
2022/04/28 02:16:19;;;;;;;29.63;3.07;;;;;;;20.81;45.94;100383.94;7311763;19;158482;-42
2022/04/28 02:18:45;;;;;;;4.50;0.73;;;;;;;21.01;47.98;100377.25;7314746;19;154323;-41
2022/04/28 02:21:10;;;;;;;28.30;2.67;;;;;;;20.88;48.43;100366.88;7314664;19;154164;-43
2022/04/28 02:23:35;;;;;;;15.40;1.40;;;;;;;21.01;48.93;100378.09;7314963;19;131250;-43
2022/04/28 02:26:00;;;;;;;27.33;2.83;;;;;;;20.94;49.54;100361.16;7311721;19;158503;-42
2022/04/28 02:28:26;;;;;;;19.55;2.10;;;;;;;21.06;49.46;100383.78;7314987;19;154582;-44
2022/04/28 02:30:51;;;;;;;24.70;2.58;;;;;;;21.08;49.29;100386.28;7315443;19;129446;-42
2022/04/28 02:33:18;;;;;;;32.73;3.63;;;;;;;21.10;49.27;100381.78;7311098;19;158587;-44
2022/04/28 02:35:44;;;;;;;23.92;2.05;;;;;;;21.00;49.69;100359.91;7313108;19;129369;-41
2022/04/28 02:38:09;;;;;;;21.88;2.17;;;;;;;21.11;49.71;100376.44;7315667;19;130362;-41
2022/04/28 02:40:34;;;;;;;19.73;2.03;;;;;;;21.09;49.84;100375.72;7313319;19;154057;-42
2022/04/28 02:43:00;;;;;;;15.40;1.67;;;;;;;21.10;50.07;100377.41;7311820;19;157361;-41
2022/04/28 02:45:26;;;;;;;36.47;3.83;;;;;;;21.13;50.46;100377.16;7314050;19;129552;-41
2022/04/28 02:47:51;;;;;;;30.02;3.17;;;;;;;21.05;48.33;100379.53;7314766;19;129956;-37
2022/04/28 02:50:17;;;;;;;19.48;1.95;;;;;;;20.73;47.27;100376.69;7312632;19;154294;-41
2022/04/28 02:52:42;;;;;;;8.85;1.08;;;;;;;20.68;46.99;100380.59;7312378;19;129504;-42
2022/04/28 02:55:08;;;;;;;30.20;2.72;;;;;;;20.69;46.67;100384.88;7313039;19;129679;-39
2022/04/28 02:57:34;;;;;;;16.98;1.63;;;;;;;20.67;46.67;100384.16;7314818;19;129110;-41
2022/04/28 03:00:00;;;;;;;22.25;2.25;;;;;;;20.70;46.52;100373.47;7315269;19;130419;-41
2022/04/28 03:02:25;;;;;;;20.85;2.15;;;;;;;20.77;46.89;100379.91;7313251;19;129689;-39
2022/04/28 03:04:51;;;;;;;30.33;2.87;;;;;;;20.72;46.65;100385.47;7311687;19;155816;-37
2022/04/28 03:13:00;;;;;;;26.80;2.80;;;;;;;20.85;45.65;100380.16;7307270;19;129455;-41
2022/04/28 03:15:26;;;;;;;38.17;4.07;;;;;;;20.99;48.60;100379.97;7310028;19;159081;-36
2022/04/28 03:17:51;;;;;;;34.33;3.55;;;;;;;20.98;48.90;100383.56;7313178;19;154572;-43
2022/04/28 03:20:16;;;;;;;22.17;2.20;;;;;;;21.02;49.24;100390.22;7309336;19;154042;-43
2022/04/28 03:22:43;;;;;;;15.18;1.55;;;;;;;20.96;49.26;100377.56;7312978;19;129675;-39
2022/04/28 03:25:09;;;;;;;25.63;2.42;;;;;;;21.05;49.83;100395.22;7314381;19;130587;-39
2022/04/28 03:27:35;;;;;;;14.65;1.77;;;;;;;21.08;49.80;100389.75;7315382;19;129169;-39
2022/04/28 03:30:00;;;;;;;9.10;1.33;;;;;;;21.00;50.08;100379.03;7313920;19;129128;-42
2022/04/28 03:32:25;;;;;;;19.70;2.10;;;;;;;21.09;50.36;100401.03;7310877;19;159132;-40
2022/04/28 03:34:51;;;;;;;25.48;2.72;;;;;;;21.10;49.78;100402.69;7310751;19;158448;-42
2022/04/28 03:37:16;;;;;;;18.77;1.92;;;;;;;21.08;50.22;100394.97;7312038;19;154515;-42
2022/04/28 03:39:41;;;;;;;28.48;3.10;;;;;;;21.13;50.42;100403.31;7310346;19;154651;-38
2022/04/28 03:42:07;;;;;;;5.95;0.90;;;;;;;21.12;50.11;100409.47;7312442;19;130782;-42
2022/04/28 03:44:34;;;;;;;19.58;1.92;;;;;;;20.89;47.64;100405.09;7313881;19;129693;-41
2022/04/28 03:46:59;;;;;;;32.03;3.03;;;;;;;20.73;47.81;100408.06;7312906;19;129025;-42
2022/04/28 03:49:25;;;;;;;25.35;2.53;;;;;;;20.66;46.91;100408.59;7312339;19;130433;-40
2022/04/28 03:51:50;;;;;;;23.45;2.58;;;;;;;20.66;46.96;100416.44;7311491;19;129358;-39
2022/04/28 03:54:16;;;;;;;15.00;1.57;;;;;;;20.70;46.49;100412.69;7308819;19;158472;-42
2022/04/28 03:56:41;;;;;;;25.07;2.40;;;;;;;20.75;46.62;100413.16;7307760;19;154744;-38
2022/04/28 03:59:07;;;;;;;17.85;1.65;;;;;;;20.80;46.11;100410.19;7311645;19;129912;-37
2022/04/28 04:01:32;;;;;;;10.65;1.35;;;;;;;20.77;46.35;100419.94;7312273;19;129350;-42
2022/04/28 04:03:58;;;;;;;38.27;3.63;;;;;;;20.86;46.32;100420.22;7305036;19;157978;-40
2022/04/28 04:06:23;;;;;;;52.67;4.57;;;;;;;20.81;46.33;100417.13;7306453;19;130079;-37
2022/04/28 04:08:49;;;;;;;40.70;3.88;;;;;;;20.89;46.63;100420.78;7307470;19;129331;-37
2022/04/28 04:11:15;;;;;;;30.13;2.80;;;;;;;20.86;46.14;100425.44;7307295;19;129545;-38
2022/04/28 04:13:40;;;;;;;34.20;2.97;;;;;;;21.00;47.33;100427.88;7309199;19;130155;-41
2022/04/28 04:16:06;;;;;;;19.58;2.42;;;;;;;20.97;49.50;100428.06;7307437;19;130056;-39
2022/04/28 04:18:31;;;;;;;48.17;4.63;;;;;;;21.06;49.04;100437.84;7307062;19;155426;-43
2022/04/28 04:20:56;;;;;;;17.90;1.80;;;;;;;21.06;49.32;100428.25;7310136;19;129762;-37
2022/04/28 04:23:22;;;;;;;22.40;2.50;;;;;;;21.09;49.83;100438.47;7303709;19;129577;-45
2022/04/28 04:25:47;;;;;;;52.45;4.55;;;;;;;21.12;49.16;100443.44;7308060;19;129569;-33
2022/04/28 04:28:13;;;;;;;25.65;2.67;;;;;;;21.13;49.98;100436.44;7310740;19;129216;-42
2022/04/28 04:33:21;;;;;;;23.20;2.63;;;;;;;21.15;50.32;100453.72;7307076;19;130043;-33
2022/04/28 04:35:47;;;;;;;27.00;2.92;;;;;;;21.12;50.20;100446.06;7308055;19;154865;-35
2022/04/28 04:38:12;;;;;;;15.50;1.55;;;;;;;21.10;50.32;100445.38;7308932;19;154348;-42
2022/04/28 04:40:37;;;;;;;14.67;2.20;;;;;;;21.09;50.10;100448.09;7311017;19;159381;-31
2022/04/28 04:43:03;;;;;;;37.90;3.83;;;;;;;20.87;47.27;100451.47;7306015;19;158426;-39
2022/04/28 04:45:28;;;;;;;34.53;3.78;;;;;;;20.65;47.58;100451.38;7310646;19;128852;-45
2022/04/28 04:47:54;;;;;;;25.90;2.78;;;;;;;20.71;47.44;100458.75;7310710;19;154804;-37
2022/04/28 04:50:19;;;;;;;20.88;2.25;;;;;;;20.78;47.04;100454.75;7310198;19;129201;-40
2022/04/28 04:52:44;;;;;;;23.90;2.40;;;;;;;20.80;46.88;100452.00;7305690;19;158262;-43
2022/04/28 04:55:10;;;;;;;18.58;2.20;;;;;;;20.69;46.32;100439.75;7307280;19;154422;-36
2022/04/28 04:57:35;;;;;;;19.55;2.00;;;;;;;20.70;46.24;100428.34;7310487;19;129543;-39
2022/04/28 05:00:02;;;;;;;32.72;3.38;;;;;;;20.79;46.41;100456.44;7309989;19;129406;-38
2022/04/28 05:02:28;;;;;;;29.42;2.95;;;;;;;20.79;46.63;100456.44;7307236;19;129334;-37
2022/04/28 05:04:53;;;;;;;21.88;2.42;;;;;;;20.81;46.23;100459.75;7310428;19;128925;-41
2022/04/28 05:07:18;;;;;;;23.67;2.53;;;;;;;20.99;47.13;100449.75;7306367;19;153985;-38
2022/04/28 05:09:44;;;;;;;16.13;1.70;;;;;;;20.90;48.51;100448.63;7307620;19;158359;-39
2022/04/28 05:12:09;;;;;;;23.97;2.60;;;;;;;21.03;48.99;100464.22;7306294;19;159269;-33
2022/04/28 05:14:35;;;;;;;18.92;2.00;;;;;;;21.06;49.50;100472.69;7310437;19;129025;-40
2022/04/28 05:17:00;;;;;;;37.92;3.65;;;;;;;21.08;49.61;100468.19;7305671;19;129596;-41
2022/04/28 05:19:27;;;;;;;31.93;3.20;;;;;;;21.09;49.34;100469.03;7308468;19;129725;-39
2022/04/28 05:21:52;;;;;;;29.03;3.10;;;;;;;21.02;50.02;100452.13;7309338;19;129294;-43
2022/04/28 05:24:17;;;;;;;21.48;2.30;;;;;;;21.11;50.13;100473.19;7309185;19;131381;-35
2022/04/28 05:26:43;;;;;;;18.23;2.10;;;;;;;21.12;50.22;100472.22;7309756;19;129425;-38
2022/04/28 05:29:09;;;;;;;27.23;2.63;;;;;;;21.12;50.33;100487.91;7309950;19;130659;-35
2022/04/28 05:31:34;;;;;;;16.13;1.83;;;;;;;21.02;50.03;100463.44;7308083;19;129650;-42
2022/04/28 05:33:59;;;;;;;21.03;2.07;;;;;;;21.10;50.30;100479.38;7307078;19;154489;-36
2022/04/28 05:36:26;;;;;;;24.08;2.42;;;;;;;20.92;48.58;100470.25;7308040;19;153294;-37
2022/04/28 05:38:52;;;;;;;27.33;2.78;;;;;;;20.71;47.52;100484.88;7309356;19;129302;-35
2022/04/28 05:41:17;;;;;;;21.42;2.38;;;;;;;20.71;47.58;100490.09;7309574;19;130346;-38
2022/04/28 05:46:26;;;;;;;27.65;2.92;;;;;;;21.08;48.75;100489.09;7309537;19;129395;-41
2022/04/28 05:48:52;;;;;;;18.48;1.95;;;;;;;21.01;48.90;100471.34;7309229;19;129795;-40
2022/04/28 05:51:18;;;;;;;25.80;2.78;;;;;;;20.78;47.34;100480.88;7307332;19;159550;-42
2022/04/28 05:53:43;;;;;;;17.80;1.83;;;;;;;20.78;47.47;100486.09;7309332;19;128963;-41
2022/04/28 05:56:09;;;;;;;23.27;2.28;;;;;;;20.63;47.27;100474.16;7308141;19;128919;-38
2022/04/28 05:58:34;;;;;;;31.77;3.10;;;;;;;20.75;46.99;100496.78;7306705;19;157109;-43
2022/04/28 06:01:00;;;;;;;22.92;2.33;;;;;;;20.77;46.67;100497.50;7306685;19;159123;-41
2022/04/28 06:03:26;;;;;;;20.50;2.17;;;;;;;20.77;46.94;100488.84;7310443;19;129021;-40
2022/04/28 06:05:51;;;;;;;33.50;3.20;;;;;;;20.78;46.77;100496.56;7315385;19;129121;-38
2022/04/28 06:08:16;;;;;;;23.70;2.53;;;;;;;20.81;46.44;100493.72;7315781;19;140409;-34
2022/04/28 06:10:42;;;;;;;21.92;1.90;;;;;;;20.81;46.11;100495.50;7317158;19;129503;-44
2022/04/28 06:13:08;;;;;;;28.02;2.70;;;;;;;20.76;45.77;100477.53;7311459;19;154726;-42
2022/04/28 06:15:33;;;;;;;14.93;1.65;;;;;;;20.82;45.97;100489.31;7315072;19;129635;-45
2022/04/28 06:17:59;;;;;;;46.40;4.18;;;;;;;20.86;46.28;100488.97;7301497;19;129958;-38
2022/04/28 06:20:24;;;;;;;31.40;3.20;;;;;;;21.02;47.88;100499.19;7303871;19;140704;-33
2022/04/28 06:22:50;;;;;;;32.08;3.50;;;;;;;21.01;48.99;100503.56;7312336;19;154572;-37
2022/04/28 06:25:15;;;;;;;23.77;2.50;;;;;;;21.05;48.91;100505.03;7315149;19;129054;-37
2022/04/28 06:27:40;;;;;;;22.63;2.35;;;;;;;20.96;49.23;100489.97;7314888;19;129882;-43
2022/04/28 06:30:06;;;;;;;31.27;2.80;;;;;;;21.05;49.22;100506.78;7313578;19;159271;-36
2022/04/28 06:32:31;;;;;;;22.50;2.27;;;;;;;21.09;49.71;100511.66;7314576;19;129950;-33
2022/04/28 06:34:57;;;;;;;26.05;2.63;;;;;;;21.11;50.09;100512.41;7314573;19;129745;-35
2022/04/28 06:37:23;;;;;;;21.58;2.33;;;;;;;21.07;49.98;100505.75;7311139;19;153947;-40
2022/04/28 06:39:48;;;;;;;31.25;2.90;;;;;;;21.11;50.10;100514.16;7315152;19;129407;-32
2022/04/28 06:42:13;;;;;;;17.50;1.80;;;;;;;21.04;50.19;100502.53;7312265;19;151038;-34
2022/04/28 06:44:39;;;;;;;28.00;2.73;;;;;;;21.14;50.22;100514.78;7313145;19;154087;-35
2022/04/28 06:47:05;;;;;;;16.85;1.73;;;;;;;21.10;49.85;100512.50;7314491;19;129397;-36
2022/04/28 06:49:31;;;;;;;52.00;4.93;;;;;;;21.00;47.80;100511.53;7313074;19;129975;-48
2022/04/28 06:51:56;;;;;;;16.45;1.98;;;;;;;20.72;47.22;100512.69;7314127;19;128825;-37
2022/04/28 06:54:21;;;;;;;28.45;2.80;;;;;;;20.83;47.40;100514.50;7313839;19;154080;-38
2022/04/28 06:56:47;;;;;;;30.05;3.05;;;;;;;21.05;49.14;100512.03;7310705;19;130696;-42
2022/04/28 06:59:12;;;;;;;18.52;1.75;;;;;;;21.07;49.28;100513.59;7315367;19;129479;-45
2022/04/28 07:01:38;;;;;;;19.80;1.95;;;;;;;20.77;48.07;100515.81;7308667;19;129321;-39
2022/04/28 07:04:03;;;;;;;17.83;1.75;;;;;;;20.72;47.35;100523.16;7314882;19;129625;-40
2022/04/28 07:06:28;;;;;;;16.15;1.70;;;;;;;20.70;47.30;100519.81;7313629;19;134231;-39
2022/04/28 07:08:53;;;;;;;29.77;3.13;;;;;;;20.69;46.86;100518.16;7311735;19;158769;-39
2022/04/28 07:11:19;;;;;;;37.47;3.67;;;;;;;20.79;46.95;100513.94;7311262;19;155244;-37
2022/04/28 07:13:44;;;;;;;13.48;1.55;;;;;;;20.80;46.95;100514.72;7312406;19;144591;-37
2022/04/28 07:16:09;;;;;;;18.25;1.75;;;;;;;20.82;46.47;100518.91;7308749;19;158338;-42
2022/04/28 07:18:35;;;;;;;18.70;1.88;;;;;;;20.80;46.41;100512.97;7314059;19;129252;-31
2022/04/28 07:21:03;;;;;;;26.98;2.40;;;;;;;20.86;46.08;100515.13;7313378;19;129144;-39
2022/04/28 07:23:30;;;;;;;17.25;1.75;;;;;;;20.77;46.02;100520.19;7313039;19;144149;-41
2022/04/28 07:25:56;;;;;;;25.30;2.70;;;;;;;20.80;46.68;100512.13;7312093;19;129374;-47
2022/04/28 07:28:21;;;;;;;19.27;1.92;;;;;;;20.80;46.55;100518.19;7314256;19;129231;-41
2022/04/28 07:30:46;;;;;;;20.67;2.15;;;;;;;20.84;46.02;100522.22;7313476;19;129134;-36
2022/04/28 07:33:12;;;;;;;12.47;1.40;;;;;;;21.01;47.91;100527.09;7310291;19;154939;-40
2022/04/28 07:35:37;;;;;;;15.07;1.63;;;;;;;20.98;48.79;100534.31;7312629;19;157147;-40
2022/04/28 07:38:03;;;;;;;17.48;1.70;;;;;;;21.02;49.16;100528.78;7314500;19;129546;-39
2022/04/28 07:40:29;;;;;;;13.35;1.58;;;;;;;21.03;48.92;100534.81;7313128;19;129284;-39
2022/04/28 07:42:55;;;;;;;28.85;2.80;;;;;;;21.07;49.30;100534.50;7311246;19;131048;-36
2022/04/28 07:45:22;;;;;;;46.85;4.82;;;;;;;21.10;49.65;100534.28;7312504;19;131425;-38
2022/04/28 07:47:49;;;;;;;36.50;3.33;;;;;;;21.02;49.86;100526.16;7313174;19;130986;-37
2022/04/28 07:50:14;;;;;;;19.77;2.00;;;;;;;21.10;49.84;100541.28;7314079;19;128991;-30
2022/04/28 07:52:40;;;;;;;22.75;2.47;;;;;;;21.09;49.16;100542.22;7311982;19;129125;-38
2022/04/28 07:55:06;;;;;;;26.67;2.40;;;;;;;21.10;50.24;100539.50;7314289;19;130390;-38
2022/04/28 07:57:32;;;;;;;15.67;1.50;;;;;;;21.03;49.86;100532.22;7311063;19;130950;-36
2022/04/28 07:59:57;;;;;;;21.50;2.22;;;;;;;21.15;50.16;100542.63;7314651;19;129023;-43
2022/04/28 08:02:22;;;;;;;24.05;2.35;;;;;;;21.06;49.29;100538.06;7312561;19;129358;-31
2022/04/28 08:04:48;;;;;;;12.45;1.52;;;;;;;20.75;47.04;100541.22;7312270;19;155973;-38
2022/04/28 08:07:13;;;;;;;20.38;2.10;;;;;;;20.74;47.05;100550.81;7312619;19;129665;-44
2022/04/28 08:09:38;;;;;;;17.47;2.00;;;;;;;20.73;47.26;100548.31;7311673;19;149680;-37
2022/04/28 08:12:05;;;;;;;18.97;1.87;;;;;;;20.73;47.02;100545.72;7309023;19;154277;-38
2022/04/28 08:14:32;;;;;;;6.18;0.98;;;;;;;20.72;47.26;100549.28;7312134;19;129057;-32
2022/04/28 08:16:58;;;;;;;23.88;2.45;;;;;;;20.74;46.31;100547.41;7310516;19;130442;-38
2022/04/28 08:19:23;;;;;;;18.45;1.90;;;;;;;20.78;46.56;100543.59;7313188;19;129323;-45
2022/04/28 08:21:49;;;;;;;28.60;2.92;;;;;;;20.82;46.80;100550.28;7311670;19;128914;-34
2022/04/28 08:24:14;;;;;;;26.35;2.63;;;;;;;20.76;46.59;100553.31;7311057;19;130045;-35
2022/04/28 08:26:40;;;;;;;9.15;1.00;;;;;;;20.76;46.03;100549.91;7307757;19;130063;-43
2022/04/28 08:29:05;;;;;;;24.58;2.45;;;;;;;20.86;46.24;100561.34;7311372;19;128839;-41
2022/04/28 08:31:32;;;;;;;13.65;1.33;;;;;;;20.98;48.36;100561.31;7312633;19;128950;-33
2022/04/28 08:33:58;;;;;;;28.33;2.67;;;;;;;20.92;48.65;100546.06;7312282;19;129431;-36
2022/04/28 08:36:25;;;;;;;21.75;2.20;;;;;;;21.04;49.38;100565.28;7306982;19;132472;-42
2022/04/28 08:38:50;;;;;;;25.17;2.63;;;;;;;21.04;49.33;100566.09;7311922;19;129531;-42
2022/04/28 08:41:31;;;;;;;18.67;1.92;;;;;;;21.07;49.96;100565.88;7311461;19;129031;-42
2022/04/28 08:44:00;;;;;;;27.77;2.78;;;;;;;21.07;49.62;100560.66;7309369;19;131883;-42
2022/04/28 08:49:12;;;;;;;15.10;1.60;;;;;;;21.09;50.02;100563.97;7313199;19;129053;-43
2022/04/28 08:51:38;;;;;;;27.17;2.60;;;;;;;21.10;50.32;100565.66;7310925;19;130709;-42
2022/04/28 08:54:05;;;;;;;10.67;1.10;;;;;;;21.07;50.03;100565.03;7312192;19;130819;-38
2022/04/28 08:56:30;;;;;;;27.00;2.63;;;;;;;21.11;49.99;100567.31;7310021;19;129545;-44
2022/04/28 08:58:55;;;;;;;25.25;2.72;;;;;;;21.03;50.64;100546.13;7311686;19;129212;-41
2022/04/28 09:01:24;;;;;;;20.92;2.10;;;;;;;20.67;47.91;100546.16;7306358;19;154330;-41
2022/04/28 09:03:49;;;;;;;18.92;2.20;;;;;;;20.77;47.58;100562.84;7310338;19;130227;-40
2022/04/28 09:06:17;;;;;;;29.50;2.65;;;;;;;20.74;47.27;100563.06;7302483;19;158451;-38
2022/04/28 09:08:42;;;;;;;23.80;2.30;;;;;;;20.71;47.30;100558.03;7311390;19;129878;-40
2022/04/28 09:11:18;;;;;;;20.10;1.88;;;;;;;20.72;46.26;100557.13;7306980;19;153996;-41
2022/04/28 09:16:33;;;;;;;25.13;2.42;;;;;;;21.03;49.31;100561.81;7305603;19;129591;-38
2022/04/28 09:18:58;;;;;;;20.00;2.05;;;;;;;20.94;48.25;100562.44;7310480;19;155202;-38
2022/04/28 09:21:24;;;;;;;32.53;3.13;;;;;;;20.76;47.84;100562.97;7305908;19;129094;-38
2022/04/28 09:23:51;;;;;;;28.98;2.75;;;;;;;20.77;47.54;100563.66;7308607;19;130930;-36
2022/04/28 09:26:16;;;;;;;29.15;2.72;;;;;;;20.81;46.60;100574.72;7306325;19;129505;-41
2022/04/28 09:28:42;;;;;;;25.45;2.35;;;;;;;20.73;46.86;100566.63;7309935;19;150118;-45
2022/04/28 09:31:09;;;;;;;26.95;2.60;;;;;;;20.82;46.57;100565.97;7310753;19;129645;-38
2022/04/28 09:33:36;;;;;;;16.42;1.63;;;;;;;20.79;46.96;100575.81;7307742;19;130188;-36
2022/04/28 09:36:03;;;;;;;20.52;1.95;;;;;;;20.74;46.40;100563.06;7308259;19;130755;-42
2022/04/28 09:38:28;;;;;;;19.75;1.92;;;;;;;20.73;46.22;100550.94;7304042;19;130088;-37
2022/04/28 09:43:38;;;;;;;17.58;1.70;;;;;;;20.83;46.46;100562.38;7314320;19;130795;-34
2022/04/28 09:46:04;;;;;;;20.35;2.08;;;;;;;20.85;45.88;100557.91;7314919;19;160316;-38
2022/04/28 09:48:33;;;;;;;15.80;1.57;;;;;;;20.98;47.73;100561.31;7313901;19;128868;-42
2022/04/28 09:51:04;;;;;;;24.63;2.28;;;;;;;20.98;48.95;100557.84;7317299;19;129012;-40
2022/04/28 09:53:34;;;;;;;20.65;2.30;;;;;;;21.01;49.84;100560.25;7309890;19;131450;-33
2022/04/28 09:56:02;;;;;;;31.60;2.90;;;;;;;21.00;48.94;100559.44;7311780;19;130249;-33
2022/04/28 09:58:29;;;;;;;12.20;1.42;;;;;;;20.98;49.55;100556.09;7315788;19;128996;-33
2022/04/28 10:00:55;;;;;;;;;;;;;;;21.13;50.10;100559.34;7317514;19;129669;-35
2022/04/28 10:03:22;;;;;;;16.90;1.60;;;;;;;21.01;49.47;100550.63;7313991;19;129515;-40
2022/04/28 10:05:49;;;;;;;21.65;2.15;;;;;;;21.00;50.26;100542.91;7315220;19;129566;-34
2022/04/28 10:08:15;;;;;;;21.25;1.90;;;;;;;21.08;49.59;100557.06;7317632;19;128961;-42
2022/04/28 10:10:42;;;;;;;21.10;2.10;;;;;;;21.10;50.27;100565.66;7308865;19;132379;-33
2022/04/28 10:13:08;;;;;;;57.38;5.82;;;;;;;21.11;50.13;100561.22;7313500;19;130770;-41
2022/04/28 10:15:34;;;;;;;20.65;2.10;;;;;;;21.07;50.37;100555.44;7308722;19;130525;-33
2022/04/28 10:18:07;;;;;;;20.95;2.13;;;;;;;21.12;50.43;100568.97;7311869;19;129252;-37
2022/04/28 10:20:42;;;;;;;19.25;1.75;;;;;;;20.76;47.55;100561.16;7312880;19;130300;-37
2022/04/28 10:23:10;;;;;;;15.85;1.60;;;;;;;20.69;47.00;100554.72;7313317;19;129760;-32
2022/04/28 10:34:13;;;;;;;22.63;2.22;;;;;;;20.74;46.83;100560.47;7315958;19;129291;-39
2022/04/28 10:36:53;;;;;;;10.70;1.13;;;;;;;20.79;46.41;100563.56;7314406;19;130555;-34
2022/04/28 10:39:39;;;;;;;24.95;2.28;;;;;;;20.81;46.40;100558.25;7314932;19;129197;-40
2022/04/28 10:42:25;;;;;;;26.73;2.30;;;;;;;20.84;46.07;100561.44;7314688;19;128997;-41
2022/04/28 10:44:56;;;;;;;22.00;2.33;;;;;;;20.80;46.63;100565.22;7315580;19;129133;-42
2022/04/28 10:47:38;;;;;;;15.95;1.67;;;;;;;20.86;48.04;100546.47;7315011;19;129418;-45
2022/04/28 10:50:23;;;;;;;22.52;1.90;;;;;;;21.01;49.12;100568.09;7314771;19;129517;-43
2022/04/28 10:53:05;;;;;;;27.63;2.80;;;;;;;21.03;49.09;100558.34;7311849;19;129016;-44
2022/04/28 10:55:53;;;;;;;14.45;1.60;;;;;;;21.07;49.56;100576.34;7314799;19;130805;-45
2022/04/28 10:58:23;;;;;;;20.38;1.92;;;;;;;20.95;49.42;100556.28;7313881;19;129327;-39
2022/04/28 11:00:56;;;;;;;24.35;2.45;;;;;;;21.06;50.65;100572.03;7314164;19;130078;-41
2022/04/28 11:03:48;;;;;;;23.48;2.10;;;;;;;21.11;49.99;100569.06;7312857;19;129795;-39
2022/04/28 11:06:16;;;;;;;19.77;1.83;;;;;;;21.08;50.09;100572.75;7314329;19;130844;-37
2022/04/28 11:08:48;;;;;;;14.80;1.48;;;;;;;21.07;50.44;100571.13;7314618;19;129773;-37
2022/04/28 11:11:14;;;;;;;24.05;2.35;;;;;;;21.07;50.03;100575.50;7314194;19;129225;-41
2022/04/28 11:13:43;;;;;;;15.40;1.53;;;;;;;21.09;50.48;100563.97;7315431;19;129186;-39
2022/04/28 11:16:09;;;;;;;16.00;1.48;;;;;;;21.07;50.50;100560.66;7314535;19;129224;-35
2022/04/28 11:18:34;;;;;;;26.20;2.50;;;;;;;20.79;48.13;100562.72;7313429;19;129673;-37
2022/04/28 11:21:02;;;;;;;16.40;1.45;;;;;;;20.59;47.05;100544.09;7315039;19;128902;-39
2022/04/28 11:23:45;;;;;;;23.83;2.42;;;;;;;20.68;46.71;100563.50;7314341;19;129139;-39
2022/04/28 11:26:11;;;;;;;22.77;2.00;;;;;;;20.69;47.28;100562.56;7308354;19;129594;-37
2022/04/28 11:28:38;;;;;;;24.45;2.03;;;;;;;20.62;47.18;100563.94;7314014;19;130296;-39
2022/04/28 11:31:12;;;;;;;18.65;1.67;;;;;;;20.72;46.46;100564.97;7312459;19;129525;-39
2022/04/28 11:33:47;;;;;;;18.65;1.75;;;;;;;20.74;46.20;100569.13;7313250;19;129069;-43
2022/04/28 11:36:16;;;;;;;23.60;2.28;;;;;;;20.73;46.57;100557.00;7312048;19;129371;-44
2022/04/28 11:38:50;;;;;;;21.42;2.05;;;;;;;20.73;46.12;100550.94;7313744;19;129829;-43
2022/04/28 11:41:15;;;;;;;27.45;2.35;;;;;;;20.79;46.62;100555.75;7313684;19;129103;-31
2022/04/28 11:43:40;;;;;;;18.48;1.65;;;;;;;20.79;46.88;100550.50;7313934;19;129041;-36